createdAt,value
2022-09-09T00:01:53.576Z,6.5
2022-09-09T00:03:55.062Z,5.5
2022-09-09T00:05:56.590Z,3.2
2022-09-09T00:07:57.989Z,2.9
2022-09-09T00:09:59.486Z,6.8
2022-09-09T00:12:00.961Z,2.2
2022-09-09T00:14:05.798Z,2.5
2022-09-09T00:16:07.328Z,3.4
2022-09-09T00:18:08.721Z,2.7
2022-09-09T00:20:10.208Z,2.3
2022-09-09T00:22:11.710Z,2.6
2022-09-09T00:24:13.142Z,3.4
2022-09-09T00:28:20.979Z,4.1
2022-09-09T00:30:22.442Z,4.3
2022-09-09T00:32:23.925Z,3.4
2022-09-09T00:34:25.400Z,4.4
2022-09-09T00:36:26.870Z,13.3
2022-09-09T00:40:29.844Z,4.5
2022-09-09T00:49:06.453Z,3.4
2022-09-09T00:53:09.407Z,4.8
2022-09-09T00:55:14.157Z,7.4
2022-09-09T01:03:20.119Z,13.9
2022-09-09T01:05:21.610Z,3.8
2022-09-09T01:09:27.875Z,5
2022-09-09T01:11:29.363Z,9.1
2022-09-09T01:13:30.835Z,13.5
2022-09-09T01:15:32.339Z,5.4
2022-09-09T01:17:33.836Z,5.6
2022-09-09T01:19:35.325Z,5.4
2022-09-09T01:21:36.827Z,6.2
2022-09-09T01:23:41.613Z,6
2022-09-09T01:25:43.097Z,5.1
2022-09-09T01:27:44.563Z,7.4
2022-09-09T01:29:46.068Z,5.7
2022-09-09T01:33:49.020Z,11.9
2022-09-09T01:35:50.494Z,5
2022-09-09T01:37:55.280Z,7.2
2022-09-09T01:39:56.875Z,7.8
2022-09-09T01:41:58.281Z,7.7
2022-09-09T01:43:00.668Z,7
2022-09-09T01:45:02.193Z,6.1
2022-09-09T01:47:03.638Z,6.4
2022-09-09T01:49:05.179Z,9.7
2022-09-09T01:53:11.407Z,6.7
2022-09-09T02:01:17.448Z,4.1
2022-09-09T02:03:18.857Z,4.7
2022-09-09T02:05:23.628Z,8.9
2022-09-09T02:07:25.133Z,10.8
2022-09-09T02:13:29.594Z,4.8
2022-09-09T02:15:31.091Z,4.2
2022-09-09T02:17:32.602Z,16.4
2022-09-09T02:21:38.846Z,5.3
2022-09-09T02:25:41.825Z,5.4
2022-09-09T02:27:43.343Z,14.6
2022-09-09T02:29:44.810Z,4.5
2022-09-09T02:33:51.089Z,8.5
2022-09-09T02:35:52.595Z,9.8
2022-09-09T02:38:56.455Z,11
2022-09-09T02:40:57.930Z,4.6
2022-09-09T02:42:59.445Z,12.2
2022-09-09T02:45:00.940Z,4.8
2022-09-09T02:47:05.726Z,10.2
2022-09-09T02:49:07.224Z,9.6
2022-09-09T02:51:08.733Z,8.3
2022-09-09T02:53:10.189Z,9.9
2022-09-09T02:55:11.713Z,10.7
2022-09-09T02:57:13.162Z,15.5
2022-09-09T02:59:14.665Z,8.1
2022-09-09T03:01:19.571Z,7.9
2022-09-09T03:03:20.954Z,6
2022-09-09T03:05:22.441Z,5.7
2022-09-09T03:07:23.983Z,12.3
2022-09-09T03:11:26.938Z,11.1
2022-09-09T03:13:28.443Z,5.2
2022-09-09T03:15:33.208Z,6.1
2022-09-09T03:17:34.719Z,14.1
2022-09-09T03:19:36.204Z,5.2
2022-09-09T03:27:42.180Z,6.3
2022-09-09T03:29:46.938Z,17.1
2022-09-09T03:34:52.349Z,7
2022-09-09T03:36:53.826Z,6.3
2022-09-09T03:40:56.821Z,12.9
2022-09-09T03:43:01.593Z,8.2
2022-09-09T03:45:03.087Z,12.9
2022-09-09T03:47:04.568Z,11.9
2022-09-09T03:49:06.098Z,10.8
2022-09-09T03:51:07.543Z,8.5
2022-09-09T03:53:09.056Z,11.7
2022-09-09T03:55:10.561Z,7.9
2022-09-09T03:57:15.310Z,14
2022-09-09T03:59:16.791Z,14.8
2022-09-09T04:05:21.292Z,14.4
2022-09-09T04:07:22.802Z,10.5
2022-09-09T04:09:24.293Z,17.5
2022-09-09T04:13:30.549Z,18.9
2022-09-09T04:15:32.035Z,15.9
2022-09-09T04:17:33.529Z,11.2
2022-09-09T04:19:35.004Z,13.2
2022-09-09T04:21:36.501Z,18.5
2022-09-09T04:23:37.975Z,17.8
2022-09-09T04:25:42.777Z,16.8
2022-09-09T04:27:44.270Z,20.9
2022-09-09T04:29:45.757Z,13.5
2022-09-09T04:32:02.696Z,18.5
2022-09-09T04:34:04.114Z,17.8
2022-09-09T04:36:05.612Z,20.7
2022-09-09T04:38:10.436Z,12
2022-09-09T04:40:11.953Z,17.5
2022-09-09T04:42:13.362Z,21.8
2022-09-09T04:44:14.881Z,24.1
2022-09-09T04:46:16.447Z,18.7
2022-09-09T04:48:17.848Z,19.6
2022-09-09T04:50:19.371Z,23.7
2022-09-09T04:52:24.117Z,26.9
2022-09-09T04:54:25.614Z,17.6
2022-09-09T04:58:28.655Z,22.7
2022-09-09T05:00:30.180Z,16.2
2022-09-09T05:02:31.772Z,14.8
2022-09-09T05:04:33.077Z,17.8
2022-09-09T05:10:40.782Z,14.3
2022-09-09T05:12:42.271Z,12.9
2022-09-09T05:14:43.793Z,16.7
2022-09-09T05:16:45.516Z,17.8
2022-09-09T05:20:51.529Z,20.6
2022-09-09T05:22:52.992Z,20.5
2022-09-09T05:24:54.481Z,18.6
2022-09-09T05:25:56.858Z,19.1
2022-09-09T05:27:58.363Z,16.4
2022-09-09T05:29:59.825Z,15.9
2022-09-09T05:32:01.427Z,20.4
2022-09-09T05:34:06.143Z,19
2022-09-09T05:36:07.595Z,16.8
2022-09-09T05:38:09.089Z,23.4
2022-09-09T05:40:10.688Z,13.5
2022-09-09T05:42:12.067Z,14.6
2022-09-09T05:44:13.561Z,20.5
2022-09-09T05:46:15.109Z,38.5
2022-09-09T05:48:19.826Z,17.4
2022-09-09T05:50:21.340Z,22.9
2022-09-09T05:52:22.793Z,23.5
2022-09-09T05:54:24.295Z,13
2022-09-09T05:56:25.781Z,16.1
2022-09-09T05:58:27.245Z,16.3
2022-09-09T06:00:28.744Z,33.8
2022-09-09T06:02:33.656Z,21.9
2022-09-09T06:04:35.025Z,23.4
2022-09-09T06:06:36.499Z,18.8
2022-09-09T06:08:38.175Z,18.8
2022-09-09T06:10:39.471Z,25.1
2022-09-09T06:12:40.938Z,22.3
2022-09-09T06:14:46.294Z,26.3
2022-09-09T06:16:48.775Z,27.7
2022-09-09T06:18:50.253Z,23.4
2022-09-09T06:20:51.746Z,30.3
2022-09-09T06:21:54.080Z,35
2022-09-09T06:24:00.228Z,24
2022-09-09T06:25:57.045Z,40.5
2022-09-09T06:27:58.507Z,24
2022-09-09T06:30:03.287Z,34.4
2022-09-09T06:32:04.867Z,44.1
2022-09-09T06:34:06.257Z,31.4
2022-09-09T06:36:07.742Z,27.4
2022-09-09T06:40:10.784Z,25.2
2022-09-09T06:42:12.164Z,35.8
2022-09-09T06:44:16.956Z,15.9
2022-09-09T06:48:19.915Z,14.6
2022-09-09T06:50:21.384Z,15.7
2022-09-09T06:52:22.883Z,19.2
2022-09-09T06:54:24.341Z,16.6
2022-09-09T06:56:25.792Z,10.8
2022-09-09T06:58:30.595Z,12.1
2022-09-09T07:00:32.121Z,16.4
2022-09-09T07:02:33.585Z,14.5
2022-09-09T07:04:35.056Z,15.5
2022-09-09T07:06:36.537Z,11.6
2022-09-09T07:08:38.133Z,10.8
2022-09-09T07:10:39.463Z,13
2022-09-09T07:12:44.241Z,9.8
2022-09-09T07:14:45.706Z,11
2022-09-09T07:16:47.142Z,9.5
2022-09-09T07:21:52.468Z,13
2022-09-09T07:23:55.501Z,9
2022-09-09T07:25:58.673Z,8.3
2022-09-09T07:28:00.156Z,14.8
2022-09-09T07:30:01.648Z,9.6
2022-09-09T07:32:03.062Z,10.1
2022-09-09T07:34:04.519Z,5.5
2022-09-09T07:36:05.965Z,21.3
2022-09-09T07:38:07.421Z,11.2
2022-09-09T07:40:12.248Z,14.9
2022-09-09T07:42:13.670Z,7.5
2022-09-09T07:44:15.080Z,6.6
2022-09-09T07:48:17.955Z,16.4
2022-09-09T07:50:19.412Z,5.9
2022-09-09T07:52:21.788Z,7.3
2022-09-09T07:54:25.662Z,11.7
2022-09-09T07:56:27.210Z,7.8
2022-09-09T07:58:28.502Z,7
2022-09-09T08:00:29.912Z,8.6
2022-09-09T08:02:31.386Z,3.5
2022-09-09T08:04:32.832Z,2.5
2022-09-09T08:06:34.356Z,4.8
2022-09-09T08:08:38.871Z,6
2022-09-09T08:10:40.300Z,5.5
2022-09-09T08:12:47.714Z,10.8
2022-09-09T08:15:02.369Z,6.5
2022-09-09T08:17:03.656Z,4.2
2022-09-09T08:19:05.117Z,4.8
2022-09-09T08:21:09.884Z,5.4
2022-09-09T08:23:11.305Z,11.2
2022-09-09T08:25:12.716Z,6.5
2022-09-09T08:27:14.095Z,14.6
2022-09-09T08:29:15.500Z,14.6
2022-09-09T08:31:16.997Z,2.7
2022-09-09T08:33:18.232Z,2
2022-09-09T08:35:22.898Z,6.4
2022-09-09T08:37:24.209Z,4.2
2022-09-09T08:39:25.581Z,10.1
2022-09-09T08:41:26.957Z,14.2
2022-09-09T08:43:28.313Z,5.2
2022-09-09T08:45:29.692Z,8.1
2022-09-09T08:47:33.993Z,10.5
2022-09-09T08:49:35.798Z,8.2
2022-09-09T08:51:37.204Z,3.7
2022-09-09T08:53:38.630Z,8.5
2022-09-09T08:55:40.056Z,9.2
2022-09-09T08:57:41.437Z,13
2022-09-09T08:59:42.757Z,8
2022-09-09T09:01:44.313Z,3.8
2022-09-09T09:05:50.388Z,9.7
2022-09-09T09:07:51.821Z,4.8
2022-09-09T09:08:54.184Z,5.1
2022-09-09T09:10:55.616Z,8.9
2022-09-09T09:12:57.032Z,5.9
2022-09-09T09:14:58.472Z,3.9
2022-09-09T09:17:03.227Z,1.5
2022-09-09T09:19:04.629Z,4.4
2022-09-09T09:21:06.043Z,6.9
2022-09-09T09:23:07.416Z,8.1
2022-09-09T09:25:08.827Z,10.3
2022-09-09T09:29:11.635Z,3.3
2022-09-09T09:31:16.383Z,4.6
2022-09-09T09:33:17.730Z,3.9
2022-09-09T09:35:19.170Z,8.4
2022-09-09T09:37:20.590Z,5.9
2022-09-09T09:41:23.411Z,3.3
2022-09-09T09:43:24.792Z,12.8
2022-09-09T09:45:29.547Z,8.1
2022-09-09T09:47:30.933Z,2
2022-09-09T09:49:32.362Z,1.4
2022-09-09T09:51:33.839Z,9.3
2022-09-09T09:55:36.629Z,3.2
2022-09-09T09:57:38.031Z,6.4
2022-09-09T09:59:42.643Z,5.9
2022-09-09T10:03:45.464Z,6.6
2022-09-09T10:06:49.256Z,5.4
2022-09-09T10:10:52.181Z,12.3
2022-09-09T10:14:58.298Z,8.4
2022-09-09T10:16:59.623Z,4.5
2022-09-09T10:19:00.942Z,4
2022-09-09T10:21:02.266Z,5.2
2022-09-09T10:23:03.592Z,5
2022-09-09T10:25:04.938Z,4.7
2022-09-09T10:31:12.331Z,9.2
2022-09-09T10:33:13.683Z,6.6
2022-09-09T10:35:15.104Z,5.7
2022-09-09T10:37:16.387Z,6.5
2022-09-09T10:41:22.320Z,9.8
2022-09-09T10:43:23.745Z,7.2
2022-09-09T10:45:25.116Z,0.8
2022-09-09T10:47:28.215Z,3.6
2022-09-09T10:49:27.741Z,3
2022-09-09T10:51:29.056Z,3
2022-09-09T10:53:30.455Z,6.2
2022-09-09T10:55:35.218Z,7.7
2022-09-09T10:57:36.602Z,7.1
2022-09-09T10:59:38.041Z,10.9
2022-09-09T11:00:40.385Z,14.4
2022-09-09T11:02:41.686Z,5.8
2022-09-09T11:04:43.017Z,10
2022-09-09T11:06:44.444Z,3.7
2022-09-09T11:08:50.776Z,4
2022-09-09T11:10:50.388Z,6.1
2022-09-09T11:12:51.822Z,5.4
2022-09-09T11:14:53.228Z,6
2022-09-09T11:16:54.775Z,1.3
2022-09-09T11:18:55.999Z,6.9
2022-09-09T11:20:57.402Z,8.8
2022-09-09T11:23:02.180Z,4.7
2022-09-09T11:25:03.606Z,16.8
2022-09-09T11:27:04.931Z,8.5
2022-09-09T11:29:06.334Z,3.6
2022-09-09T11:31:07.791Z,3.5
2022-09-09T11:33:09.097Z,8.8
2022-09-09T11:35:10.469Z,5.4
2022-09-09T11:37:15.129Z,2.3
2022-09-09T11:45:20.677Z,3.5
2022-09-09T11:47:22.117Z,3.2
2022-09-09T11:49:23.492Z,10.9
2022-09-09T11:51:28.257Z,2.6
2022-09-09T11:53:29.660Z,3.9
2022-09-09T11:55:31.062Z,10.1
2022-09-09T11:57:53.759Z,5
2022-09-09T11:59:55.234Z,8.9
2022-09-09T12:01:56.702Z,4.5
2022-09-09T12:04:02.952Z,3
2022-09-09T12:06:04.191Z,5
2022-09-09T12:08:05.542Z,6.6
2022-09-09T12:28:22.352Z,2.7
2022-09-09T12:30:23.748Z,1.5
2022-09-09T12:34:30.783Z,6.1
2022-09-09T12:38:32.555Z,1.4
2022-09-09T12:40:33.966Z,2.3
2022-09-09T12:42:40.518Z,6.3
2022-09-09T12:44:36.670Z,7.2
2022-09-09T12:46:41.239Z,7.3
2022-09-09T12:48:42.632Z,1.4
2022-09-09T12:50:44.066Z,9.6
2022-09-09T12:51:46.435Z,1
2022-09-09T12:53:47.832Z,1.1
2022-09-09T12:55:49.130Z,1.4
2022-09-09T12:57:50.460Z,5.9
2022-09-09T12:59:55.165Z,0.8
2022-09-09T13:01:56.727Z,2.1
2022-09-09T13:03:57.992Z,6.5
2022-09-09T13:12:03.523Z,8.2
2022-09-09T13:14:08.073Z,1.9
2022-09-09T13:16:09.560Z,0.9
2022-09-09T13:18:10.758Z,1.8
2022-09-09T13:20:12.185Z,2.2
2022-09-09T13:22:13.607Z,0.7
2022-09-09T13:24:14.984Z,20.2
2022-09-09T13:32:23.616Z,4.6
2022-09-09T13:34:25.018Z,1.5
2022-09-09T13:38:27.975Z,6.5
2022-09-09T13:40:29.055Z,6.5
2022-09-09T13:42:33.654Z,3.3
2022-09-09T13:44:34.957Z,1.4
2022-09-09T13:46:36.250Z,7.5
2022-09-09T13:47:38.528Z,5.7
2022-09-09T13:49:39.901Z,3.1
2022-09-09T13:51:41.181Z,4.3
2022-09-09T13:53:42.481Z,3.3
2022-09-09T13:55:51.690Z,1.9
2022-09-09T13:57:48.352Z,4.8
2022-09-09T14:05:53.587Z,1.5
2022-09-09T14:07:54.882Z,2.1
2022-09-09T14:09:59.528Z,5.4
2022-09-09T14:12:00.889Z,4.1
2022-09-09T14:14:02.317Z,2.5
2022-09-09T14:16:03.739Z,2.7
2022-09-09T14:18:04.985Z,8.5
2022-09-09T14:24:12.316Z,6.4
2022-09-09T14:32:17.681Z,1.1
2022-09-09T14:34:19.063Z,3.8
2022-09-09T14:36:20.360Z,1.1
2022-09-09T14:38:25.055Z,1.5
2022-09-09T14:40:26.419Z,5.4
2022-09-09T14:42:27.851Z,2.9
2022-09-09T14:43:30.268Z,6.3
2022-09-09T14:45:31.634Z,15.4
2022-09-09T14:47:33.101Z,7.9
2022-09-09T14:49:34.505Z,6.1
2022-09-09T14:51:39.256Z,4
2022-09-09T14:53:40.692Z,6.2
2022-09-09T14:59:44.968Z,5.4
2022-09-09T15:01:46.527Z,2.7
2022-09-09T15:05:52.465Z,2.1
2022-09-09T15:07:53.854Z,2.8
2022-09-09T15:09:55.188Z,1.5
2022-09-09T15:11:56.507Z,4.9
2022-09-09T15:15:59.170Z,4.5
2022-09-09T15:18:00.460Z,5.7
2022-09-09T15:20:05.128Z,3.8
2022-09-09T15:22:06.424Z,1.4
2022-09-09T15:24:07.741Z,7.3
2022-09-09T15:26:09.042Z,1.6
2022-09-09T15:32:12.957Z,2.7
2022-09-09T15:38:20.345Z,6.7
2022-09-09T15:40:42.903Z,1.3
2022-09-09T15:44:45.516Z,4.6
2022-09-09T15:46:50.152Z,12.2
2022-09-09T15:48:53.841Z,1.7
2022-09-09T15:50:52.915Z,4.6
2022-09-09T15:52:54.277Z,2.8
2022-09-09T15:54:55.721Z,1.2
2022-09-09T15:56:57.101Z,2.1
2022-09-09T15:58:58.415Z,10.4
2022-09-09T16:01:03.174Z,7.8
2022-09-09T16:03:04.464Z,4.5
2022-09-09T16:05:05.768Z,5.3
2022-09-09T16:07:07.116Z,6.9
2022-09-09T16:09:08.481Z,1.4
2022-09-09T16:11:12.162Z,8.2
2022-09-09T16:13:11.111Z,2.5
2022-09-09T16:15:15.625Z,7.2
2022-09-09T16:17:16.969Z,3.5
2022-09-09T16:19:18.331Z,8.1
2022-09-09T16:21:19.678Z,9.1
2022-09-09T16:23:21.063Z,3
2022-09-09T16:25:22.488Z,7
2022-09-09T16:27:23.889Z,3.1
2022-09-09T16:29:28.677Z,4.7
2022-09-09T16:31:30.200Z,2.4
2022-09-09T16:33:31.769Z,2.9
2022-09-09T16:34:34.061Z,3.4
2022-09-09T16:36:35.243Z,8.6
2022-09-09T16:38:36.745Z,6.1
2022-09-09T16:40:38.172Z,2.5
2022-09-09T16:42:42.930Z,9.9
2022-09-09T16:46:45.878Z,4
2022-09-09T16:48:47.181Z,1.2
2022-09-09T16:52:50.057Z,3.4
2022-09-09T16:54:51.441Z,1
2022-09-09T16:56:56.348Z,5.7
2022-09-09T16:58:57.650Z,1.9
2022-09-09T17:00:59.091Z,5.4
2022-09-09T17:03:00.632Z,2.2
2022-09-09T17:05:02.084Z,0.8
2022-09-09T17:11:09.605Z,3.1
2022-09-09T17:13:11.040Z,3.5
2022-09-09T17:15:12.458Z,1.8
2022-09-09T17:17:30.294Z,1.7
2022-09-09T17:19:15.380Z,2.5
2022-09-09T17:21:16.794Z,2.2
2022-09-09T17:23:18.210Z,5.1
2022-09-09T17:25:23.002Z,4.9
2022-09-09T17:29:26.070Z,1.3
2022-09-09T17:30:28.298Z,4.5
2022-09-09T17:32:29.728Z,3.9
2022-09-09T17:34:31.186Z,3.7
2022-09-09T17:36:32.632Z,9.4
2022-09-09T17:38:37.400Z,2.9
2022-09-09T17:40:38.850Z,12.8
2022-09-09T17:42:40.306Z,6.6
2022-09-09T17:46:43.283Z,6.7
2022-09-09T17:48:44.654Z,2.6
2022-09-09T17:50:46.113Z,5.1
2022-09-09T17:52:50.895Z,4
2022-09-09T17:54:53.922Z,5.3
2022-09-09T17:56:55.445Z,3.8
2022-09-09T17:58:56.786Z,11.5
2022-09-09T18:00:58.244Z,2.6
2022-09-09T18:02:59.749Z,6.1
2022-09-09T18:05:01.188Z,7.8
2022-09-09T18:07:05.914Z,5.5
2022-09-09T18:09:07.369Z,3.8
2022-09-09T18:11:08.836Z,11.8
2022-09-09T18:13:10.276Z,5.7
2022-09-09T18:15:11.762Z,7
2022-09-09T18:17:13.221Z,10.7
2022-09-09T18:23:20.949Z,3.9
2022-09-09T18:28:26.256Z,12.7
2022-09-09T18:30:27.735Z,10.2
2022-09-09T18:36:35.454Z,4.9
2022-09-09T18:38:37.016Z,5.9
2022-09-09T18:40:38.357Z,3.7
2022-09-09T18:48:47.541Z,8.3
2022-09-09T18:58:54.867Z,9.2
2022-09-09T19:00:56.373Z,9.8
2022-09-09T19:03:01.101Z,10.4
2022-09-09T19:05:02.591Z,8.9
2022-09-09T19:07:04.181Z,5.5
2022-09-09T19:09:05.561Z,6.7
2022-09-09T19:11:07.019Z,6.6
2022-09-09T19:13:08.444Z,6
2022-09-09T19:15:09.914Z,6.3
2022-09-09T19:17:14.694Z,11.5
2022-09-09T19:19:16.171Z,4.5
2022-09-09T19:21:17.610Z,9.2
2022-09-09T19:25:35.888Z,4.9
2022-09-09T19:27:37.364Z,9.8
2022-09-09T19:29:42.155Z,5.9
2022-09-09T19:37:48.014Z,12.6
2022-09-09T19:39:49.716Z,9.9
2022-09-09T19:41:50.948Z,10
2022-09-09T19:43:55.712Z,8.5
2022-09-09T19:45:57.256Z,15.4
2022-09-09T19:47:58.638Z,7.5
2022-09-09T19:50:00.155Z,6.8
2022-09-09T19:56:04.497Z,8.1
2022-09-09T20:00:10.806Z,8.1
2022-09-09T20:02:12.316Z,6.4
2022-09-09T20:08:16.639Z,7.5
2022-09-09T20:10:18.100Z,7.2
2022-09-09T20:12:22.875Z,6.8
2022-09-09T20:16:25.805Z,9
2022-09-09T20:17:28.212Z,10.8
2022-09-09T20:19:29.691Z,9.4
2022-09-09T20:21:31.171Z,12.2
2022-09-09T20:23:32.761Z,5.2
2022-09-09T20:25:37.368Z,10.7
2022-09-09T20:27:38.874Z,9.7
2022-09-09T20:29:40.306Z,13.9
2022-09-09T20:31:41.793Z,13.9
2022-09-09T20:33:43.282Z,8.4
2022-09-09T20:35:44.746Z,9.9
2022-09-09T20:37:46.211Z,9.3
2022-09-09T20:39:51.088Z,7.3
2022-09-09T20:41:52.512Z,7.5
2022-09-09T20:45:55.429Z,13.7
2022-09-09T20:47:56.907Z,8.9
2022-09-09T20:49:58.371Z,17.5
2022-09-09T20:51:59.824Z,13.2
2022-09-09T20:56:06.073Z,13.5
2022-09-09T20:58:07.549Z,14.1
2022-09-09T21:06:13.432Z,10.8
2022-09-09T21:08:18.201Z,12.7
2022-09-09T21:12:21.140Z,11.5
2022-09-09T21:13:23.545Z,12.9
2022-09-09T21:15:25.044Z,13.2
2022-09-09T21:17:26.515Z,8.7
2022-09-09T21:21:32.742Z,12.9
2022-09-09T21:23:34.183Z,10
2022-09-09T21:25:35.667Z,9.3
2022-09-09T21:27:37.156Z,12.5
2022-09-09T21:29:38.656Z,12.9
2022-09-09T21:31:40.154Z,9.6
2022-09-09T21:33:41.586Z,10.7
2022-09-09T21:35:46.351Z,12.9
2022-09-09T21:37:47.842Z,17.2
2022-09-09T21:39:49.329Z,18.9
2022-09-09T21:41:50.774Z,12.1
2022-09-09T21:43:52.282Z,20.6
2022-09-09T21:45:53.758Z,16.4
2022-09-09T21:47:55.231Z,14.1
2022-09-09T21:52:01.481Z,16.4
2022-09-09T21:56:04.443Z,15.1
2022-09-09T21:58:05.885Z,11.3
2022-09-09T22:04:13.664Z,15.4
2022-09-09T22:06:15.108Z,13
2022-09-09T22:08:16.577Z,20
2022-09-09T22:09:18.940Z,13.6
2022-09-09T22:11:20.417Z,13.3
2022-09-09T22:13:21.924Z,11.4
2022-09-09T22:15:23.381Z,20.8
2022-09-09T22:17:28.308Z,15.7
2022-09-09T22:19:29.658Z,17.4
2022-09-09T22:21:31.110Z,17.3
2022-09-09T22:23:32.597Z,15.8
2022-09-09T22:25:34.077Z,18.2
2022-09-09T22:27:35.544Z,17.8
2022-09-09T22:29:37.028Z,20.1
2022-09-09T22:33:43.266Z,13.7
2022-09-09T22:35:44.740Z,17
2022-09-09T22:37:46.219Z,23.4
2022-09-09T22:39:47.699Z,15.9
2022-09-09T22:41:49.171Z,18.3
2022-09-09T22:43:50.652Z,27.3
2022-09-09T22:45:55.412Z,20.9
2022-09-09T22:47:56.895Z,20.4
2022-09-09T22:49:58.381Z,21.1
2022-09-09T22:56:02.822Z,16.8
2022-09-09T22:58:04.307Z,21.3
2022-09-09T23:02:10.593Z,34.7
2022-09-09T23:04:12.109Z,22.8
2022-09-09T23:06:32.903Z,30.5
2022-09-09T23:08:34.459Z,19.5
2022-09-09T23:10:35.848Z,16.5
2022-09-09T23:12:40.627Z,22.8
2022-09-09T23:14:42.127Z,18.7
2022-09-09T23:16:43.574Z,19.3
2022-09-09T23:20:46.516Z,19.5
2022-09-09T23:35:00.194Z,12
2022-09-09T23:37:01.647Z,14.3
2022-09-09T23:39:03.123Z,15.4
2022-09-09T23:41:07.930Z,23.4
2022-09-09T23:43:09.381Z,21.2
2022-09-09T23:45:12.427Z,9.4
2022-09-09T23:47:13.872Z,17.4
2022-09-09T23:49:15.353Z,22.9
2022-09-09T23:51:16.826Z,8.2
2022-09-09T23:53:18.312Z,12.1
2022-09-09T23:55:23.061Z,8.3
2022-09-09T23:57:24.540Z,10
2022-09-09T23:59:26.002Z,7.7
